createdAt,value
2022-11-28T00:01:19.739Z,5.21
2022-11-28T00:03:46.345Z,5.21
2022-11-28T00:06:12.875Z,5.21
2022-11-28T00:08:39.423Z,5.22
2022-11-28T00:11:08.270Z,5.22
2022-11-28T00:13:36.174Z,5.23
2022-11-28T00:16:05.851Z,5.23
2022-11-28T00:18:32.819Z,5.24
2022-11-28T00:21:07.907Z,5.24
2022-11-28T00:23:34.964Z,5.24
2022-11-28T00:26:07.838Z,5.25
2022-11-28T00:28:34.405Z,5.26
2022-11-28T00:31:00.817Z,5.27
2022-11-28T00:33:27.521Z,5.27
2022-11-28T00:36:01.906Z,5.28
2022-11-28T00:38:29.074Z,5.28
2022-11-28T00:41:06.910Z,5.28
2022-11-28T00:43:34.005Z,5.28
2022-11-28T00:46:00.676Z,5.28
2022-11-28T00:48:27.448Z,5.29
2022-11-28T00:50:54.829Z,5.29
2022-11-28T00:53:21.643Z,5.30
2022-11-28T00:55:48.062Z,5.30
2022-11-28T00:58:14.453Z,5.33
2022-11-28T01:00:40.915Z,5.32
2022-11-28T01:03:07.370Z,5.33
2022-11-28T01:05:39.948Z,5.33
2022-11-28T01:08:06.272Z,5.32
2022-11-28T01:10:32.776Z,5.33
2022-11-28T01:12:59.181Z,5.34
2022-11-28T01:15:25.772Z,5.34
2022-11-28T01:17:52.127Z,5.36
2022-11-28T01:20:19.700Z,5.36
2022-11-28T01:22:46.112Z,5.37
2022-11-28T01:25:12.506Z,5.38
2022-11-28T01:27:38.855Z,5.40
2022-11-28T01:30:05.875Z,5.40
2022-11-28T01:32:32.289Z,5.40
2022-11-28T01:34:58.660Z,5.42
2022-11-28T01:37:25.076Z,5.42
2022-11-28T01:39:51.502Z,5.44
2022-11-28T01:42:19.763Z,5.45
2022-11-28T01:44:49.126Z,5.46
2022-11-28T01:47:20.563Z,5.46
2022-11-28T01:49:49.172Z,5.47
2022-11-28T01:52:17.626Z,5.49
2022-11-28T01:54:48.156Z,5.49
2022-11-28T01:57:21.246Z,5.49
2022-11-28T01:59:55.868Z,5.50
2022-11-28T02:02:27.223Z,5.51
2022-11-28T02:04:53.665Z,5.51
2022-11-28T02:07:20.567Z,5.52
2022-11-28T02:09:47.025Z,5.53
2022-11-28T02:12:28.350Z,5.53
2022-11-28T02:15:06.713Z,5.55
2022-11-28T02:17:35.986Z,5.55
2022-11-28T02:20:50.364Z,5.55
2022-11-28T02:23:45.324Z,5.55
2022-11-28T02:26:48.284Z,5.56
2022-11-28T02:29:52.663Z,5.57
2022-11-28T02:32:34.143Z,5.57
2022-11-28T02:35:22.047Z,5.60
2022-11-28T02:38:14.604Z,5.60
2022-11-28T02:41:02.430Z,5.61
2022-11-28T02:43:42.006Z,5.64
2022-11-28T02:46:26.349Z,5.64
2022-11-28T02:48:55.655Z,5.67
2022-11-28T02:51:25.954Z,5.68
2022-11-28T02:53:54.547Z,5.69
2022-11-28T02:56:23.754Z,5.70
2022-11-28T02:58:50.210Z,5.70
2022-11-28T03:01:34.209Z,5.72
2022-11-28T03:04:12.643Z,5.71
2022-11-28T03:07:01.402Z,5.73
2022-11-28T03:09:33.656Z,5.73
2022-11-28T03:12:22.754Z,5.75
2022-11-28T03:15:14.422Z,5.77
2022-11-28T03:18:08.632Z,5.80
2022-11-28T03:20:49.739Z,5.82
2022-11-28T03:23:31.516Z,5.82
2022-11-28T03:26:01.699Z,5.84
2022-11-28T03:28:45.363Z,5.86
2022-11-28T03:31:22.671Z,5.88
2022-11-28T03:33:53.914Z,5.89
2022-11-28T03:36:25.529Z,5.92
2022-11-28T03:38:58.193Z,5.94
2022-11-28T03:41:30.994Z,5.96
2022-11-28T03:43:59.855Z,5.98
2022-11-28T03:46:34.658Z,6.01
2022-11-28T03:49:03.066Z,6.03
2022-11-28T03:51:40.923Z,6.05
2022-11-28T03:54:25.033Z,6.05
2022-11-28T03:57:08.974Z,6.08
2022-11-28T03:59:47.766Z,6.10
2022-11-28T04:02:40.079Z,6.11
2022-11-28T04:05:25.204Z,6.14
2022-11-28T04:08:27.024Z,6.16
2022-11-28T04:11:14.755Z,6.18
2022-11-28T04:13:41.020Z,6.19
2022-11-28T04:16:36.262Z,6.22
2022-11-28T04:19:11.608Z,6.22
2022-11-28T04:21:44.427Z,6.24
2022-11-28T04:24:14.898Z,6.25
2022-11-28T04:26:49.240Z,6.30
2022-11-28T04:29:20.771Z,6.32
2022-11-28T04:31:50.968Z,6.35
2022-11-28T04:34:20.286Z,6.35
2022-11-28T04:36:49.223Z,6.38
2022-11-28T04:39:19.773Z,6.41
2022-11-28T04:41:55.013Z,6.44
2022-11-28T04:44:38.813Z,6.46
2022-11-28T04:47:05.655Z,6.49
2022-11-28T04:49:32.464Z,6.49
2022-11-28T04:52:08.295Z,6.53
2022-11-28T04:54:53.448Z,6.56
2022-11-28T04:57:36.033Z,6.60
2022-11-28T05:00:07.307Z,6.63
2022-11-28T05:02:35.468Z,6.67
2022-11-28T05:05:06.558Z,6.69
2022-11-28T05:07:32.967Z,6.70
2022-11-28T05:09:59.450Z,6.73
2022-11-28T05:12:25.787Z,6.75
2022-11-28T05:14:52.184Z,6.79
2022-11-28T05:17:18.573Z,6.80
2022-11-28T05:19:44.999Z,6.80
2022-11-28T05:22:11.356Z,6.82
2022-11-28T05:24:37.800Z,6.84
2022-11-28T05:27:04.201Z,6.88
2022-11-28T05:29:30.532Z,6.89
2022-11-28T05:31:56.963Z,6.94
2022-11-28T05:34:23.425Z,6.95
2022-11-28T05:36:49.853Z,7.00
2022-11-28T05:39:16.652Z,7.04
2022-11-28T05:41:43.036Z,7.07
2022-11-28T05:44:10.121Z,7.10
2022-11-28T05:46:36.524Z,7.11
2022-11-28T05:49:03.016Z,7.12
2022-11-28T05:51:29.376Z,7.15
2022-11-28T05:53:55.879Z,7.19
2022-11-28T05:56:25.109Z,7.19
2022-11-28T05:58:54.409Z,7.22
2022-11-28T06:01:23.704Z,7.21
2022-11-28T06:03:50.390Z,7.23
2022-11-28T06:06:19.520Z,7.25
2022-11-28T06:08:47.876Z,7.26
2022-11-28T06:11:15.002Z,7.30
2022-11-28T06:13:45.616Z,7.30
2022-11-28T06:16:20.419Z,7.32
2022-11-28T06:18:47.275Z,7.34
2022-11-28T06:21:14.921Z,7.35
2022-11-28T06:23:41.674Z,7.39
2022-11-28T06:26:11.735Z,7.43
2022-11-28T06:28:38.688Z,7.45
2022-11-28T06:31:09.312Z,7.46
2022-11-28T06:33:35.662Z,7.44
2022-11-28T06:36:04.118Z,7.46
2022-11-28T06:38:30.957Z,7.55
2022-11-28T06:41:04.104Z,7.73
2022-11-28T06:43:30.927Z,7.81
2022-11-28T06:45:57.446Z,7.85
2022-11-28T06:48:24.845Z,7.84
2022-11-28T06:50:51.773Z,7.83
2022-11-28T06:53:18.315Z,7.85
2022-11-28T06:55:45.374Z,7.85
2022-11-28T06:58:11.899Z,7.86
2022-11-28T07:00:38.327Z,7.89
2022-11-28T07:03:05.056Z,7.87
2022-11-28T07:05:31.423Z,7.83
2022-11-28T07:07:58.602Z,7.80
2022-11-28T07:10:25.784Z,7.80
2022-11-28T07:13:04.885Z,7.79
2022-11-28T07:15:31.961Z,7.79
2022-11-28T07:17:58.396Z,7.86
2022-11-28T07:20:24.972Z,7.86
2022-11-28T07:22:51.384Z,7.88
2022-11-28T07:25:18.033Z,7.90
2022-11-28T07:27:44.454Z,7.88
2022-11-28T07:30:11.131Z,7.83
2022-11-28T07:32:40.942Z,7.83
2022-11-28T07:35:08.813Z,7.83
2022-11-28T07:37:35.558Z,7.83
2022-11-28T07:40:02.293Z,7.82
2022-11-28T07:42:28.791Z,7.78
2022-11-28T07:44:55.220Z,7.77
2022-11-28T07:47:21.960Z,7.78
2022-11-28T07:49:48.412Z,7.75
2022-11-28T07:52:15.267Z,7.78
2022-11-28T07:54:41.730Z,7.76
2022-11-28T07:57:11.872Z,7.78
2022-11-28T07:59:39.277Z,7.79
2022-11-28T08:02:05.826Z,7.76
2022-11-28T08:04:32.317Z,7.73
2022-11-28T08:06:58.806Z,7.75
2022-11-28T08:09:25.267Z,7.76
2022-11-28T08:11:52.478Z,7.73
2022-11-28T08:14:19.878Z,7.73
2022-11-28T08:16:46.388Z,7.74
2022-11-28T08:19:13.325Z,7.76
2022-11-28T08:21:39.844Z,7.78
2022-11-28T08:24:08.046Z,7.83
2022-11-28T08:26:35.478Z,7.88
2022-11-28T08:29:02.970Z,7.92
2022-11-28T08:31:35.056Z,7.92
2022-11-28T08:34:05.535Z,7.94
2022-11-28T08:36:32.399Z,7.93
2022-11-28T08:39:17.095Z,7.96
2022-11-28T08:41:49.728Z,7.96
2022-11-28T08:44:16.181Z,7.99
2022-11-28T08:46:42.644Z,8.01
2022-11-28T08:49:09.015Z,8.01
2022-11-28T08:51:36.705Z,8.02
2022-11-28T08:54:03.142Z,8.03
2022-11-28T08:56:29.598Z,8.07
2022-11-28T08:58:56.023Z,8.07
2022-11-28T09:01:25.598Z,8.02
2022-11-28T09:03:53.144Z,8.05
2022-11-28T09:06:21.012Z,8.02
2022-11-28T09:08:48.808Z,8.03
2022-11-28T09:11:17.806Z,8.04
2022-11-28T09:13:44.658Z,8.04
2022-11-28T09:16:11.660Z,8.06
2022-11-28T09:18:38.168Z,8.07
2022-11-28T09:21:09.298Z,8.08
2022-11-28T09:23:37.626Z,8.17
2022-11-28T09:26:33.409Z,8.24
2022-11-28T09:29:00.172Z,8.27
2022-11-28T09:31:26.613Z,8.32
2022-11-28T09:33:53.938Z,8.35
2022-11-28T09:36:22.951Z,8.39
2022-11-28T09:38:49.996Z,8.41
2022-11-28T09:41:28.462Z,8.45
2022-11-28T09:44:10.089Z,8.46
2022-11-28T09:46:38.807Z,8.52
2022-11-28T09:49:17.933Z,8.54
2022-11-28T09:51:59.230Z,8.63
2022-11-28T09:54:44.890Z,8.67
2022-11-28T09:57:23.932Z,8.70
2022-11-28T09:59:50.420Z,8.69
2022-11-28T10:02:40.943Z,8.71
2022-11-28T10:05:16.208Z,8.71
2022-11-28T10:08:02.110Z,8.76
2022-11-28T10:10:48.799Z,8.75
2022-11-28T10:13:36.554Z,8.78
2022-11-28T10:16:50.996Z,8.82
2022-11-28T10:19:52.862Z,8.85
2022-11-28T10:22:18.875Z,8.90
2022-11-28T10:24:53.789Z,8.95
2022-11-28T10:27:26.716Z,9.00
2022-11-28T10:30:02.841Z,9.06
2022-11-28T10:32:37.237Z,9.11
2022-11-28T10:35:07.428Z,9.17
2022-11-28T10:37:36.927Z,9.19
2022-11-28T10:40:41.660Z,9.23
2022-11-28T10:43:29.070Z,9.29
2022-11-28T10:46:09.796Z,9.39
2022-11-28T10:48:44.316Z,9.44
2022-11-28T10:51:10.612Z,9.45
2022-11-28T10:53:46.085Z,9.51
2022-11-28T10:56:32.224Z,9.58
2022-11-28T10:59:10.190Z,9.66
2022-11-28T11:01:42.866Z,9.70
2022-11-28T11:04:21.815Z,9.77
2022-11-28T11:07:14.875Z,9.88
2022-11-28T11:09:45.376Z,9.88
2022-11-28T11:12:26.317Z,9.89
2022-11-28T11:14:52.954Z,9.96
2022-11-28T11:17:40.642Z,10.08
2022-11-28T11:20:40.129Z,10.18
2022-11-28T11:23:20.663Z,10.34
2022-11-28T11:25:55.521Z,10.37
2022-11-28T11:28:42.212Z,10.31
2022-11-28T11:31:19.348Z,10.25
2022-11-28T11:33:46.712Z,10.21
2022-11-28T11:36:29.515Z,10.28
2022-11-28T11:39:13.178Z,10.31
2022-11-28T11:41:45.582Z,10.53
2022-11-28T11:44:14.944Z,10.75
2022-11-28T11:47:03.840Z,10.90
2022-11-28T11:49:30.227Z,11.23
2022-11-28T11:51:58.622Z,11.58
2022-11-28T11:54:25.002Z,11.72
2022-11-28T11:57:05.743Z,11.78
2022-11-28T11:59:47.406Z,11.89
2022-11-28T12:02:36.294Z,11.70
2022-11-28T12:05:15.265Z,11.35
2022-11-28T12:08:04.986Z,10.98
2022-11-28T12:10:35.708Z,10.65
2022-11-28T12:13:02.700Z,10.44
2022-11-28T12:15:41.672Z,10.42
2022-11-28T12:18:35.443Z,10.73
2022-11-28T12:21:13.231Z,10.80
2022-11-28T12:24:06.920Z,10.75
2022-11-28T12:27:03.634Z,11.25
2022-11-28T12:29:47.098Z,11.80
2022-11-28T12:32:38.107Z,11.19
2022-11-28T12:35:24.582Z,11.09
2022-11-28T12:38:12.423Z,10.87
2022-11-28T12:41:10.556Z,10.51
2022-11-28T12:44:13.307Z,10.22
2022-11-28T12:47:01.035Z,10.24
2022-11-28T12:49:58.277Z,10.38
2022-11-28T12:52:49.404Z,11.77
2022-11-28T12:55:27.995Z,13.64
2022-11-28T12:58:07.059Z,12.34
2022-11-28T13:00:39.432Z,11.86
2022-11-28T13:03:18.903Z,11.20
2022-11-28T13:06:20.264Z,10.84
2022-11-28T13:08:55.385Z,10.62
2022-11-28T13:11:24.535Z,10.58
2022-11-28T13:14:06.223Z,10.62
2022-11-28T13:16:54.544Z,10.67
2022-11-28T13:19:35.919Z,10.74
2022-11-28T13:22:20.333Z,10.82
2022-11-28T13:25:01.727Z,10.89
2022-11-28T13:27:46.010Z,10.78
2022-11-28T13:30:20.156Z,10.76
2022-11-28T13:32:49.808Z,10.56
2022-11-28T13:35:18.540Z,10.49
2022-11-28T13:41:35.857Z,10.19
2022-11-28T13:44:15.425Z,10.12
2022-11-28T13:46:45.849Z,10.08
2022-11-28T13:49:26.529Z,10.06
2022-11-28T13:52:17.970Z,9.97
2022-11-28T13:54:51.574Z,9.88
2022-11-28T13:57:38.959Z,9.83
2022-11-28T14:00:24.245Z,9.79
2022-11-28T14:02:55.943Z,9.73
2022-11-28T14:05:38.245Z,9.77
2022-11-28T14:08:06.103Z,9.77
2022-11-28T14:10:49.537Z,9.71
2022-11-28T14:13:38.652Z,9.64
2022-11-28T14:16:14.445Z,9.57
2022-11-28T14:19:15.670Z,9.49
2022-11-28T14:22:05.691Z,9.39
2022-11-28T14:24:59.655Z,9.26
2022-11-28T14:27:34.602Z,9.20
2022-11-28T14:30:02.134Z,9.19
2022-11-28T14:32:36.431Z,9.11
2022-11-28T14:35:04.747Z,9.00
2022-11-28T14:37:31.146Z,8.93
2022-11-28T14:39:57.866Z,8.85
2022-11-28T14:42:58.707Z,8.77
2022-11-28T14:45:32.511Z,8.68
2022-11-28T14:48:31.677Z,8.62
2022-11-28T14:51:01.920Z,8.53
2022-11-28T14:53:45.667Z,8.44
2022-11-28T14:56:15.004Z,8.40
2022-11-28T14:58:49.152Z,8.34
2022-11-28T15:01:28.224Z,8.29
2022-11-28T15:04:29.552Z,8.27
2022-11-28T15:06:56.545Z,8.17
2022-11-28T15:09:48.381Z,8.07
2022-11-28T15:12:28.713Z,8.00
2022-11-28T15:14:57.761Z,7.89
2022-11-28T15:17:30.598Z,7.81
2022-11-28T15:20:02.849Z,7.73
2022-11-28T15:22:31.144Z,7.65
2022-11-28T15:24:57.823Z,7.59
2022-11-28T15:27:26.273Z,7.55
2022-11-28T15:29:55.003Z,7.45
2022-11-28T15:32:21.964Z,7.41
2022-11-28T15:35:10.925Z,7.39
2022-11-28T15:37:39.058Z,7.30
2022-11-28T15:40:06.486Z,7.24
2022-11-28T15:42:35.490Z,7.18
2022-11-28T15:45:08.171Z,7.18
2022-11-28T15:47:34.947Z,7.15
2022-11-28T15:50:13.548Z,7.15
2022-11-28T15:52:39.973Z,7.11
2022-11-28T15:55:19.729Z,7.08
2022-11-28T15:57:46.140Z,7.07
2022-11-28T16:00:14.392Z,7.07
2022-11-28T16:02:42.722Z,7.04
2022-11-28T16:05:16.025Z,6.99
2022-11-28T16:07:44.052Z,6.93
2022-11-28T16:10:26.422Z,6.93
2022-11-28T16:13:00.638Z,6.87
2022-11-28T16:15:27.660Z,6.81
2022-11-28T16:17:55.705Z,6.74
2022-11-28T16:20:26.603Z,6.69
2022-11-28T16:22:59.543Z,6.68
2022-11-28T16:25:27.195Z,6.68
2022-11-28T16:27:57.222Z,6.69
2022-11-28T16:30:25.878Z,6.67
2022-11-28T16:32:55.180Z,6.57
2022-11-28T16:35:41.507Z,6.53
2022-11-28T16:38:18.398Z,6.53
2022-11-28T16:40:44.930Z,6.50
2022-11-28T16:43:24.756Z,6.50
2022-11-28T16:46:00.024Z,6.51
2022-11-28T16:48:30.510Z,6.67
2022-11-28T16:51:02.935Z,6.69
2022-11-28T16:53:43.727Z,6.71
2022-11-28T16:56:31.739Z,6.78
2022-11-28T16:59:07.234Z,6.77
2022-11-28T17:01:35.093Z,6.82
2022-11-28T17:04:02.052Z,6.93
2022-11-28T17:06:34.081Z,6.99
2022-11-28T17:09:01.607Z,7.02
2022-11-28T17:11:32.649Z,6.95
2022-11-28T17:14:02.296Z,6.84
2022-11-28T17:16:33.415Z,6.75
2022-11-28T17:19:00.050Z,6.75
2022-11-28T17:21:49.336Z,6.67
2022-11-28T17:24:21.267Z,6.48
2022-11-28T17:26:48.937Z,6.34
2022-11-28T17:29:16.344Z,6.18
2022-11-28T17:31:46.656Z,6.08
2022-11-28T17:34:19.591Z,6.03
2022-11-28T17:36:46.568Z,6.02
2022-11-28T17:39:13.659Z,6.08
2022-11-28T17:41:40.784Z,6.15
2022-11-28T17:44:14.329Z,6.16
2022-11-28T17:46:41.063Z,6.19
2022-11-28T17:49:07.550Z,6.20
2022-11-28T17:51:33.891Z,6.16
2022-11-28T17:54:00.286Z,6.14
2022-11-28T17:56:26.983Z,6.15
2022-11-28T17:58:53.307Z,6.15
2022-11-28T18:01:26.787Z,6.20
2022-11-28T18:03:53.445Z,6.25
2022-11-28T18:06:21.406Z,6.21
2022-11-28T18:08:50.448Z,6.21
2022-11-28T18:11:18.768Z,6.21
2022-11-28T18:13:45.356Z,6.16
2022-11-28T18:16:14.310Z,6.16
2022-11-28T18:18:40.995Z,6.15
2022-11-28T18:21:08.655Z,6.14
2022-11-28T18:23:38.643Z,6.16
2022-11-28T18:26:12.929Z,6.12
2022-11-28T18:28:39.695Z,6.10
2022-11-28T18:31:11.512Z,6.12
2022-11-28T18:33:38.944Z,6.14
2022-11-28T18:36:17.018Z,6.18
2022-11-28T18:38:47.040Z,6.18
2022-11-28T18:41:16.375Z,6.18
2022-11-28T18:43:43.953Z,6.17
2022-11-28T18:46:13.182Z,6.16
2022-11-28T18:48:42.216Z,6.18
2022-11-28T18:51:19.923Z,6.18
2022-11-28T18:53:47.166Z,6.20
2022-11-28T18:56:14.243Z,6.22
2022-11-28T18:58:43.518Z,6.20
2022-11-28T19:01:14.576Z,6.21
2022-11-28T19:03:42.271Z,6.19
2022-11-28T19:06:11.467Z,6.18
2022-11-28T19:08:38.694Z,6.18
2022-11-28T19:11:09.570Z,6.16
2022-11-28T19:13:36.828Z,6.15
2022-11-28T19:16:13.110Z,6.13
2022-11-28T19:18:40.256Z,6.08
2022-11-28T19:21:11.644Z,6.09
2022-11-28T19:23:38.727Z,6.05
2022-11-28T19:26:08.046Z,6.00
2022-11-28T19:28:35.663Z,5.92
2022-11-28T19:31:16.639Z,5.86
2022-11-28T19:33:43.907Z,5.82
2022-11-28T19:36:12.467Z,5.79
2022-11-28T19:38:39.920Z,5.75
2022-11-28T19:41:07.094Z,5.70
2022-11-28T19:43:34.299Z,5.68
2022-11-28T19:46:01.595Z,5.67
2022-11-28T19:48:29.589Z,5.71
2022-11-28T19:50:56.237Z,5.78
2022-11-28T19:53:23.297Z,5.93
2022-11-28T19:55:49.708Z,6.07
2022-11-28T19:58:17.575Z,6.16
2022-11-28T20:00:44.467Z,6.26
2022-11-28T20:03:11.102Z,6.36
2022-11-28T20:05:40.107Z,6.39
2022-11-28T20:08:07.045Z,6.48
2022-11-28T20:10:39.933Z,6.50
2022-11-28T20:13:06.510Z,6.52
2022-11-28T20:15:36.583Z,6.47
2022-11-28T20:18:03.427Z,6.42
2022-11-28T20:20:29.808Z,6.37
2022-11-28T20:22:57.527Z,6.33
2022-11-28T20:25:24.029Z,6.21
2022-11-28T20:27:50.410Z,6.12
2022-11-28T20:30:17.239Z,6.03
2022-11-28T20:32:43.607Z,6.01
2022-11-28T20:35:10.275Z,6.04
2022-11-28T20:37:38.939Z,6.16
2022-11-28T20:40:06.432Z,6.26
2022-11-28T20:42:39.791Z,6.35
2022-11-28T20:45:07.224Z,6.32
2022-11-28T20:47:34.985Z,6.28
2022-11-28T20:50:01.748Z,6.36
2022-11-28T20:52:28.143Z,6.48
2022-11-28T20:54:54.514Z,6.57
2022-11-28T20:57:22.231Z,6.52
2022-11-28T20:59:49.059Z,6.53
2022-11-28T21:02:16.366Z,6.47
2022-11-28T21:04:42.844Z,6.47
2022-11-28T21:07:09.204Z,6.52
2022-11-28T21:09:35.584Z,6.42
2022-11-28T21:12:02.017Z,6.35
2022-11-28T21:14:29.165Z,6.26
2022-11-28T21:16:57.208Z,6.27
2022-11-28T21:19:23.780Z,6.25
2022-11-28T21:21:50.205Z,6.26
2022-11-28T21:24:16.616Z,6.32
2022-11-28T21:26:48.074Z,6.44
2022-11-28T21:29:19.758Z,6.56
2022-11-28T21:31:46.733Z,6.54
2022-11-28T21:34:14.616Z,6.61
2022-11-28T21:36:41.759Z,6.58
2022-11-28T21:39:12.778Z,6.46
2022-11-28T21:41:39.285Z,6.35
2022-11-28T21:44:05.861Z,6.35
2022-11-28T21:46:32.198Z,6.27
2022-11-28T21:48:58.662Z,6.19
2022-11-28T21:51:26.161Z,6.13
2022-11-28T21:53:52.589Z,6.09
2022-11-28T21:56:20.242Z,6.11
2022-11-28T21:58:46.666Z,6.22
2022-11-28T22:01:14.498Z,6.23
2022-11-28T22:03:41.771Z,6.28
2022-11-28T22:06:12.870Z,6.30
2022-11-28T22:08:39.481Z,6.28
2022-11-28T22:11:11.064Z,6.43
2022-11-28T22:13:38.400Z,6.42
2022-11-28T22:16:14.764Z,6.38
2022-11-28T22:18:41.253Z,6.30
2022-11-28T22:21:28.580Z,6.26
2022-11-28T22:23:56.112Z,6.24
2022-11-28T22:26:22.568Z,6.20
2022-11-28T22:28:53.549Z,6.24
2022-11-28T22:31:20.915Z,6.19
2022-11-28T22:33:49.095Z,6.13
2022-11-28T22:36:17.499Z,6.05
2022-11-28T22:38:45.453Z,6.12
2022-11-28T22:41:19.811Z,6.04
2022-11-28T22:43:53.129Z,5.99
2022-11-28T22:46:19.721Z,5.91
2022-11-28T22:48:46.429Z,5.85
2022-11-28T22:51:16.220Z,5.80
2022-11-28T22:53:43.280Z,5.77
2022-11-28T22:56:13.314Z,5.79
2022-11-28T22:58:42.962Z,5.83
2022-11-28T23:01:18.210Z,5.86
2022-11-28T23:03:45.626Z,5.87
2022-11-28T23:06:17.679Z,5.88
2022-11-28T23:08:44.624Z,5.88
2022-11-28T23:11:14.726Z,5.91
2022-11-28T23:13:41.862Z,5.92
2022-11-28T23:16:15.965Z,5.94
2022-11-28T23:18:44.325Z,5.96
2022-11-28T23:21:12.019Z,5.97
2022-11-28T23:23:38.472Z,5.99
2022-11-28T23:26:10.205Z,6.02
2022-11-28T23:28:37.898Z,6.01
2022-11-28T23:31:10.293Z,6.02
2022-11-28T23:33:37.482Z,5.99
2022-11-28T23:36:19.913Z,5.99
2022-11-28T23:38:48.247Z,5.96
2022-11-28T23:41:15.119Z,6.00
2022-11-28T23:43:41.876Z,6.04
2022-11-28T23:46:09.390Z,6.08
2022-11-28T23:48:36.336Z,6.09
2022-11-28T23:51:03.578Z,6.10
2022-11-28T23:53:30.012Z,6.09
2022-11-28T23:56:02.659Z,6.07
2022-11-28T23:58:29.064Z,6.01
